sensor_id;sensor_type;location;lat;lon;timestamp;P1;durP1;ratioP1;P2;durP2;ratioP2
17592;SDS011;8915;51.760;14.300;2024-01-16T00:02:08;5.57;;;3.30;;
17592;SDS011;8915;51.760;14.300;2024-01-16T00:04:36;8.90;;;3.03;;
17592;SDS011;8915;51.760;14.300;2024-01-16T00:07:02;4.93;;;2.90;;
17592;SDS011;8915;51.760;14.300;2024-01-16T00:09:29;4.50;;;3.00;;
17592;SDS011;8915;51.760;14.300;2024-01-16T00:11:58;7.80;;;3.07;;
17592;SDS011;8915;51.760;14.300;2024-01-16T00:14:25;6.27;;;3.03;;
17592;SDS011;8915;51.760;14.300;2024-01-16T00:16:51;6.33;;;2.97;;
17592;SDS011;8915;51.760;14.300;2024-01-16T00:19:19;6.20;;;3.60;;
17592;SDS011;8915;51.760;14.300;2024-01-16T00:21:45;4.97;;;3.00;;
17592;SDS011;8915;51.760;14.300;2024-01-16T00:24:12;8.23;;;3.20;;
17592;SDS011;8915;51.760;14.300;2024-01-16T00:26:38;7.30;;;3.53;;
17592;SDS011;8915;51.760;14.300;2024-01-16T00:29:05;5.67;;;3.13;;
17592;SDS011;8915;51.760;14.300;2024-01-16T00:31:31;7.80;;;3.17;;
17592;SDS011;8915;51.760;14.300;2024-01-16T00:33:58;5.93;;;3.47;;
17592;SDS011;8915;51.760;14.300;2024-01-16T00:36:25;4.97;;;2.90;;
17592;SDS011;8915;51.760;14.300;2024-01-16T00:38:52;5.17;;;2.90;;
17592;SDS011;8915;51.760;14.300;2024-01-16T00:41:18;3.80;;;2.70;;
17592;SDS011;8915;51.760;14.300;2024-01-16T00:43:45;6.00;;;3.37;;
17592;SDS011;8915;51.760;14.300;2024-01-16T00:46:11;6.93;;;2.80;;
17592;SDS011;8915;51.760;14.300;2024-01-16T00:48:38;5.80;;;3.50;;
17592;SDS011;8915;51.760;14.300;2024-01-16T00:51:04;6.83;;;2.93;;
17592;SDS011;8915;51.760;14.300;2024-01-16T00:53:32;5.80;;;2.50;;
17592;SDS011;8915;51.760;14.300;2024-01-16T00:55:58;8.80;;;3.07;;
17592;SDS011;8915;51.760;14.300;2024-01-16T00:58:25;4.77;;;2.37;;
17592;SDS011;8915;51.760;14.300;2024-01-16T01:00:51;3.47;;;2.20;;
17592;SDS011;8915;51.760;14.300;2024-01-16T01:03:18;5.63;;;2.70;;
17592;SDS011;8915;51.760;14.300;2024-01-16T01:05:44;3.73;;;2.60;;
17592;SDS011;8915;51.760;14.300;2024-01-16T01:08:10;2.67;;;2.10;;
17592;SDS011;8915;51.760;14.300;2024-01-16T01:10:38;3.93;;;2.70;;
17592;SDS011;8915;51.760;14.300;2024-01-16T01:13:04;4.53;;;1.87;;
17592;SDS011;8915;51.760;14.300;2024-01-16T01:15:31;3.40;;;2.20;;
17592;SDS011;8915;51.760;14.300;2024-01-16T01:17:56;2.40;;;1.90;;
17592;SDS011;8915;51.760;14.300;2024-01-16T01:20:22;3.07;;;2.00;;
17592;SDS011;8915;51.760;14.300;2024-01-16T01:22:49;4.47;;;1.93;;
17592;SDS011;8915;51.760;14.300;2024-01-16T01:25:15;3.97;;;2.23;;
17592;SDS011;8915;51.760;14.300;2024-01-16T01:27:43;4.40;;;1.80;;
17592;SDS011;8915;51.760;14.300;2024-01-16T01:30:10;3.10;;;1.87;;
17592;SDS011;8915;51.760;14.300;2024-01-16T01:32:36;3.80;;;2.00;;
17592;SDS011;8915;51.760;14.300;2024-01-16T01:35:03;3.13;;;2.10;;
17592;SDS011;8915;51.760;14.300;2024-01-16T01:37:30;3.87;;;2.20;;
17592;SDS011;8915;51.760;14.300;2024-01-16T01:39:56;2.53;;;1.67;;
17592;SDS011;8915;51.760;14.300;2024-01-16T01:42:23;4.73;;;1.80;;
17592;SDS011;8915;51.760;14.300;2024-01-16T01:44:50;2.23;;;1.70;;
17592;SDS011;8915;51.760;14.300;2024-01-16T01:47:17;3.33;;;2.10;;
17592;SDS011;8915;51.760;14.300;2024-01-16T01:49:43;4.40;;;2.10;;
17592;SDS011;8915;51.760;14.300;2024-01-16T01:52:09;3.13;;;2.70;;
17592;SDS011;8915;51.760;14.300;2024-01-16T01:54:36;5.33;;;3.13;;
17592;SDS011;8915;51.760;14.300;2024-01-16T01:57:04;5.03;;;2.90;;
17592;SDS011;8915;51.760;14.300;2024-01-16T01:59:31;3.40;;;2.70;;
17592;SDS011;8915;51.760;14.300;2024-01-16T02:01:59;3.93;;;2.70;;
17592;SDS011;8915;51.760;14.300;2024-01-16T02:04:26;6.43;;;3.43;;
17592;SDS011;8915;51.760;14.300;2024-01-16T02:06:53;4.53;;;3.53;;
17592;SDS011;8915;51.760;14.300;2024-01-16T02:09:21;6.50;;;3.57;;
17592;SDS011;8915;51.760;14.300;2024-01-16T02:11:48;4.57;;;3.23;;
17592;SDS011;8915;51.760;14.300;2024-01-16T02:14:14;7.37;;;3.40;;
17592;SDS011;8915;51.760;14.300;2024-01-16T02:16:41;5.33;;;3.43;;
17592;SDS011;8915;51.760;14.300;2024-01-16T02:19:11;6.47;;;3.97;;
17592;SDS011;8915;51.760;14.300;2024-01-16T02:21:39;5.40;;;3.40;;
17592;SDS011;8915;51.760;14.300;2024-01-16T02:24:10;5.67;;;3.23;;
17592;SDS011;8915;51.760;14.300;2024-01-16T02:26:37;5.57;;;3.63;;
17592;SDS011;8915;51.760;14.300;2024-01-16T02:29:03;5.60;;;3.57;;
17592;SDS011;8915;51.760;14.300;2024-01-16T02:31:30;8.97;;;3.87;;
17592;SDS011;8915;51.760;14.300;2024-01-16T02:33:57;4.27;;;3.17;;
17592;SDS011;8915;51.760;14.300;2024-01-16T02:36:23;5.97;;;3.77;;
17592;SDS011;8915;51.760;14.300;2024-01-16T02:38:50;5.60;;;3.50;;
17592;SDS011;8915;51.760;14.300;2024-01-16T02:41:18;6.17;;;3.30;;
17592;SDS011;8915;51.760;14.300;2024-01-16T02:43:44;9.33;;;3.57;;
17592;SDS011;8915;51.760;14.300;2024-01-16T02:46:11;6.43;;;3.40;;
17592;SDS011;8915;51.760;14.300;2024-01-16T02:48:38;7.47;;;3.20;;
17592;SDS011;8915;51.760;14.300;2024-01-16T02:51:05;6.03;;;3.23;;
17592;SDS011;8915;51.760;14.300;2024-01-16T02:53:31;6.80;;;3.10;;
17592;SDS011;8915;51.760;14.300;2024-01-16T02:55:57;9.33;;;3.60;;
17592;SDS011;8915;51.760;14.300;2024-01-16T02:58:25;5.57;;;3.30;;
17592;SDS011;8915;51.760;14.300;2024-01-16T03:00:52;5.13;;;3.00;;
17592;SDS011;8915;51.760;14.300;2024-01-16T03:03:18;5.67;;;3.20;;
17592;SDS011;8915;51.760;14.300;2024-01-16T03:05:45;6.73;;;3.23;;
17592;SDS011;8915;51.760;14.300;2024-01-16T03:08:11;4.13;;;3.00;;
17592;SDS011;8915;51.760;14.300;2024-01-16T03:10:38;4.20;;;2.97;;
17592;SDS011;8915;51.760;14.300;2024-01-16T03:13:05;7.07;;;3.57;;
17592;SDS011;8915;51.760;14.300;2024-01-16T03:15:32;8.60;;;3.13;;
17592;SDS011;8915;51.760;14.300;2024-01-16T03:17:59;5.73;;;3.60;;
17592;SDS011;8915;51.760;14.300;2024-01-16T03:20:26;6.40;;;3.27;;
17592;SDS011;8915;51.760;14.300;2024-01-16T03:22:52;8.07;;;3.10;;
17592;SDS011;8915;51.760;14.300;2024-01-16T03:25:19;5.83;;;3.30;;
17592;SDS011;8915;51.760;14.300;2024-01-16T03:27:46;8.27;;;3.40;;
17592;SDS011;8915;51.760;14.300;2024-01-16T03:30:12;5.13;;;3.23;;
17592;SDS011;8915;51.760;14.300;2024-01-16T03:32:39;6.07;;;3.40;;
17592;SDS011;8915;51.760;14.300;2024-01-16T03:35:06;5.10;;;3.63;;
17592;SDS011;8915;51.760;14.300;2024-01-16T03:37:33;7.30;;;3.00;;
17592;SDS011;8915;51.760;14.300;2024-01-16T03:39:59;4.00;;;2.90;;
17592;SDS011;8915;51.760;14.300;2024-01-16T03:42:26;8.00;;;3.83;;
17592;SDS011;8915;51.760;14.300;2024-01-16T03:44:52;4.93;;;3.03;;
17592;SDS011;8915;51.760;14.300;2024-01-16T03:47:19;5.13;;;3.30;;
17592;SDS011;8915;51.760;14.300;2024-01-16T03:49:47;10.30;;;3.20;;
17592;SDS011;8915;51.760;14.300;2024-01-16T03:52:13;5.67;;;2.90;;
17592;SDS011;8915;51.760;14.300;2024-01-16T03:54:39;5.60;;;2.83;;
17592;SDS011;8915;51.760;14.300;2024-01-16T03:57:06;5.10;;;2.63;;
17592;SDS011;8915;51.760;14.300;2024-01-16T03:59:32;4.53;;;2.57;;
17592;SDS011;8915;51.760;14.300;2024-01-16T04:02:00;6.17;;;2.97;;
17592;SDS011;8915;51.760;14.300;2024-01-16T04:04:26;3.23;;;2.47;;
17592;SDS011;8915;51.760;14.300;2024-01-16T04:06:54;4.70;;;2.90;;
17592;SDS011;8915;51.760;14.300;2024-01-16T04:09:20;8.37;;;2.80;;
17592;SDS011;8915;51.760;14.300;2024-01-16T04:11:49;5.53;;;2.90;;
17592;SDS011;8915;51.760;14.300;2024-01-16T04:14:16;5.63;;;2.80;;
17592;SDS011;8915;51.760;14.300;2024-01-16T04:16:42;2.80;;;2.40;;
17592;SDS011;8915;51.760;14.300;2024-01-16T04:19:08;7.57;;;2.73;;
17592;SDS011;8915;51.760;14.300;2024-01-16T04:21:35;5.40;;;2.60;;
17592;SDS011;8915;51.760;14.300;2024-01-16T04:24:03;5.13;;;2.60;;
17592;SDS011;8915;51.760;14.300;2024-01-16T04:26:30;5.77;;;2.90;;
17592;SDS011;8915;51.760;14.300;2024-01-16T04:28:56;6.43;;;2.83;;
17592;SDS011;8915;51.760;14.300;2024-01-16T04:31:23;5.60;;;3.30;;
17592;SDS011;8915;51.760;14.300;2024-01-16T04:33:50;4.23;;;3.07;;
17592;SDS011;8915;51.760;14.300;2024-01-16T04:36:16;4.83;;;2.70;;
17592;SDS011;8915;51.760;14.300;2024-01-16T04:38:42;6.00;;;2.43;;
17592;SDS011;8915;51.760;14.300;2024-01-16T04:41:10;5.30;;;1.90;;
17592;SDS011;8915;51.760;14.300;2024-01-16T04:43:36;2.63;;;2.00;;
17592;SDS011;8915;51.760;14.300;2024-01-16T04:46:03;3.27;;;1.60;;
17592;SDS011;8915;51.760;14.300;2024-01-16T04:48:29;3.77;;;1.90;;
17592;SDS011;8915;51.760;14.300;2024-01-16T04:50:56;2.43;;;1.60;;
17592;SDS011;8915;51.760;14.300;2024-01-16T04:53:22;4.43;;;1.80;;
17592;SDS011;8915;51.760;14.300;2024-01-16T04:55:48;3.30;;;2.07;;
17592;SDS011;8915;51.760;14.300;2024-01-16T04:58:16;2.17;;;1.73;;
17592;SDS011;8915;51.760;14.300;2024-01-16T05:00:43;1.77;;;1.50;;
17592;SDS011;8915;51.760;14.300;2024-01-16T05:03:10;2.50;;;1.40;;
17592;SDS011;8915;51.760;14.300;2024-01-16T05:05:37;2.47;;;1.73;;
17592;SDS011;8915;51.760;14.300;2024-01-16T05:08:03;1.90;;;1.70;;
17592;SDS011;8915;51.760;14.300;2024-01-16T05:10:30;2.80;;;1.70;;
17592;SDS011;8915;51.760;14.300;2024-01-16T05:12:56;3.20;;;1.77;;
17592;SDS011;8915;51.760;14.300;2024-01-16T05:15:24;2.33;;;1.67;;
17592;SDS011;8915;51.760;14.300;2024-01-16T05:17:50;2.00;;;1.50;;
17592;SDS011;8915;51.760;14.300;2024-01-16T05:20:16;1.57;;;1.33;;
17592;SDS011;8915;51.760;14.300;2024-01-16T05:22:43;1.67;;;1.27;;
17592;SDS011;8915;51.760;14.300;2024-01-16T05:25:09;2.33;;;1.20;;
17592;SDS011;8915;51.760;14.300;2024-01-16T05:27:36;1.20;;;1.03;;
17592;SDS011;8915;51.760;14.300;2024-01-16T05:30:02;1.93;;;1.40;;
17592;SDS011;8915;51.760;14.300;2024-01-16T05:32:31;2.10;;;1.40;;
17592;SDS011;8915;51.760;14.300;2024-01-16T05:34:57;3.33;;;1.47;;
17592;SDS011;8915;51.760;14.300;2024-01-16T05:37:23;3.37;;;1.40;;
17592;SDS011;8915;51.760;14.300;2024-01-16T05:39:50;3.53;;;2.20;;
17592;SDS011;8915;51.760;14.300;2024-01-16T05:42:16;3.70;;;1.47;;
17592;SDS011;8915;51.760;14.300;2024-01-16T05:44:42;1.57;;;1.37;;
17592;SDS011;8915;51.760;14.300;2024-01-16T05:47:09;2.03;;;1.67;;
17592;SDS011;8915;51.760;14.300;2024-01-16T05:49:36;2.53;;;1.53;;
17592;SDS011;8915;51.760;14.300;2024-01-16T05:52:03;2.20;;;1.70;;
17592;SDS011;8915;51.760;14.300;2024-01-16T05:54:29;1.50;;;1.37;;
17592;SDS011;8915;51.760;14.300;2024-01-16T05:56:56;1.70;;;1.47;;
17592;SDS011;8915;51.760;14.300;2024-01-16T05:59:22;1.40;;;1.30;;
17592;SDS011;8915;51.760;14.300;2024-01-16T06:01:48;2.63;;;1.50;;
17592;SDS011;8915;51.760;14.300;2024-01-16T06:04:15;2.30;;;1.90;;
17592;SDS011;8915;51.760;14.300;2024-01-16T06:06:43;1.67;;;1.57;;
17592;SDS011;8915;51.760;14.300;2024-01-16T06:09:10;2.20;;;1.70;;
17592;SDS011;8915;51.760;14.300;2024-01-16T06:11:39;3.00;;;1.70;;
17592;SDS011;8915;51.760;14.300;2024-01-16T06:14:05;3.67;;;1.90;;
17592;SDS011;8915;51.760;14.300;2024-01-16T06:16:32;2.03;;;1.60;;
17592;SDS011;8915;51.760;14.300;2024-01-16T06:18:58;2.30;;;1.53;;
17592;SDS011;8915;51.760;14.300;2024-01-16T06:21:25;2.97;;;1.77;;
17592;SDS011;8915;51.760;14.300;2024-01-16T06:23:53;1.77;;;1.40;;
17592;SDS011;8915;51.760;14.300;2024-01-16T06:26:19;1.93;;;1.70;;
17592;SDS011;8915;51.760;14.300;2024-01-16T06:28:45;2.63;;;1.90;;
17592;SDS011;8915;51.760;14.300;2024-01-16T06:31:12;5.33;;;1.93;;
17592;SDS011;8915;51.760;14.300;2024-01-16T06:33:38;4.73;;;2.20;;
17592;SDS011;8915;51.760;14.300;2024-01-16T06:36:05;3.93;;;2.17;;
17592;SDS011;8915;51.760;14.300;2024-01-16T06:38:32;3.30;;;2.30;;
17592;SDS011;8915;51.760;14.300;2024-01-16T06:40:59;3.70;;;2.17;;
17592;SDS011;8915;51.760;14.300;2024-01-16T06:43:26;2.77;;;1.90;;
17592;SDS011;8915;51.760;14.300;2024-01-16T06:45:53;2.40;;;1.70;;
17592;SDS011;8915;51.760;14.300;2024-01-16T06:48:19;3.07;;;2.10;;
17592;SDS011;8915;51.760;14.300;2024-01-16T06:50:46;3.17;;;1.63;;
17592;SDS011;8915;51.760;14.300;2024-01-16T06:53:12;5.50;;;2.20;;
17592;SDS011;8915;51.760;14.300;2024-01-16T06:55:39;5.00;;;1.97;;
17592;SDS011;8915;51.760;14.300;2024-01-16T06:58:06;3.47;;;2.00;;
17592;SDS011;8915;51.760;14.300;2024-01-16T07:00:34;3.10;;;1.93;;
17592;SDS011;8915;51.760;14.300;2024-01-16T07:03:01;3.40;;;2.03;;
17592;SDS011;8915;51.760;14.300;2024-01-16T07:05:28;2.00;;;1.80;;
17592;SDS011;8915;51.760;14.300;2024-01-16T07:07:55;3.57;;;2.20;;
17592;SDS011;8915;51.760;14.300;2024-01-16T07:10:21;5.13;;;2.10;;
17592;SDS011;8915;51.760;14.300;2024-01-16T07:12:49;4.27;;;2.13;;
17592;SDS011;8915;51.760;14.300;2024-01-16T07:15:17;2.20;;;1.97;;
17592;SDS011;8915;51.760;14.300;2024-01-16T07:17:44;2.40;;;2.03;;
17592;SDS011;8915;51.760;14.300;2024-01-16T07:20:10;2.23;;;1.70;;
17592;SDS011;8915;51.760;14.300;2024-01-16T07:22:37;3.50;;;1.97;;
17592;SDS011;8915;51.760;14.300;2024-01-16T07:25:04;2.47;;;1.93;;
17592;SDS011;8915;51.760;14.300;2024-01-16T07:27:31;4.03;;;2.47;;
17592;SDS011;8915;51.760;14.300;2024-01-16T07:29:57;3.83;;;2.13;;
17592;SDS011;8915;51.760;14.300;2024-01-16T07:32:25;2.97;;;2.20;;
17592;SDS011;8915;51.760;14.300;2024-01-16T07:34:51;3.47;;;2.47;;
17592;SDS011;8915;51.760;14.300;2024-01-16T07:37:18;3.27;;;2.30;;
17592;SDS011;8915;51.760;14.300;2024-01-16T07:39:44;3.90;;;3.10;;
17592;SDS011;8915;51.760;14.300;2024-01-16T07:42:10;5.53;;;2.53;;
17592;SDS011;8915;51.760;14.300;2024-01-16T07:44:37;4.27;;;2.60;;
17592;SDS011;8915;51.760;14.300;2024-01-16T07:47:03;3.43;;;2.40;;
17592;SDS011;8915;51.760;14.300;2024-01-16T07:49:31;4.90;;;2.00;;
17592;SDS011;8915;51.760;14.300;2024-01-16T07:51:57;4.07;;;2.40;;
17592;SDS011;8915;51.760;14.300;2024-01-16T07:54:24;6.10;;;3.23;;
17592;SDS011;8915;51.760;14.300;2024-01-16T07:56:51;5.17;;;2.37;;
17592;SDS011;8915;51.760;14.300;2024-01-16T07:59:17;5.77;;;2.73;;
17592;SDS011;8915;51.760;14.300;2024-01-16T08:01:44;3.33;;;2.30;;
17592;SDS011;8915;51.760;14.300;2024-01-16T08:04:10;4.30;;;2.97;;
17592;SDS011;8915;51.760;14.300;2024-01-16T08:06:38;7.20;;;2.97;;
17592;SDS011;8915;51.760;14.300;2024-01-16T08:09:05;4.93;;;2.47;;
17592;SDS011;8915;51.760;14.300;2024-01-16T08:11:31;4.90;;;2.90;;
17592;SDS011;8915;51.760;14.300;2024-01-16T08:14:00;3.60;;;2.63;;
17592;SDS011;8915;51.760;14.300;2024-01-16T08:16:27;5.07;;;3.07;;
17592;SDS011;8915;51.760;14.300;2024-01-16T08:18:53;2.73;;;2.20;;
17592;SDS011;8915;51.760;14.300;2024-01-16T08:21:19;5.00;;;2.60;;
17592;SDS011;8915;51.760;14.300;2024-01-16T08:23:47;3.90;;;2.40;;
17592;SDS011;8915;51.760;14.300;2024-01-16T08:26:13;4.07;;;2.53;;
17592;SDS011;8915;51.760;14.300;2024-01-16T08:28:40;5.40;;;2.70;;
17592;SDS011;8915;51.760;14.300;2024-01-16T08:31:06;13.47;;;8.00;;
17592;SDS011;8915;51.760;14.300;2024-01-16T08:33:32;7.20;;;3.33;;
17592;SDS011;8915;51.760;14.300;2024-01-16T08:35:59;19.87;;;11.43;;
17592;SDS011;8915;51.760;14.300;2024-01-16T08:38:25;8.87;;;5.43;;
17592;SDS011;8915;51.760;14.300;2024-01-16T08:40:53;9.10;;;3.10;;
17592;SDS011;8915;51.760;14.300;2024-01-16T08:43:19;5.67;;;3.47;;
17592;SDS011;8915;51.760;14.300;2024-01-16T08:45:46;6.37;;;3.50;;
17592;SDS011;8915;51.760;14.300;2024-01-16T08:48:13;6.30;;;3.63;;
17592;SDS011;8915;51.760;14.300;2024-01-16T08:50:40;5.50;;;3.37;;
17592;SDS011;8915;51.760;14.300;2024-01-16T08:53:06;5.93;;;3.63;;
17592;SDS011;8915;51.760;14.300;2024-01-16T08:55:33;5.93;;;3.50;;
17592;SDS011;8915;51.760;14.300;2024-01-16T08:58:01;6.33;;;3.60;;
17592;SDS011;8915;51.760;14.300;2024-01-16T09:00:27;7.07;;;3.40;;
17592;SDS011;8915;51.760;14.300;2024-01-16T09:02:54;9.03;;;4.33;;
17592;SDS011;8915;51.760;14.300;2024-01-16T09:05:20;9.50;;;4.43;;
17592;SDS011;8915;51.760;14.300;2024-01-16T09:07:50;6.80;;;4.30;;
17592;SDS011;8915;51.760;14.300;2024-01-16T09:10:17;9.63;;;4.70;;
17592;SDS011;8915;51.760;14.300;2024-01-16T09:12:43;8.23;;;4.17;;
17592;SDS011;8915;51.760;14.300;2024-01-16T09:15:11;9.77;;;5.47;;
17592;SDS011;8915;51.760;14.300;2024-01-16T09:17:38;6.40;;;4.70;;
17592;SDS011;8915;51.760;14.300;2024-01-16T09:20:05;6.10;;;3.67;;
17592;SDS011;8915;51.760;14.300;2024-01-16T09:22:33;6.23;;;3.60;;
17592;SDS011;8915;51.760;14.300;2024-01-16T09:24:59;5.43;;;3.10;;
17592;SDS011;8915;51.760;14.300;2024-01-16T09:27:26;6.97;;;3.77;;
17592;SDS011;8915;51.760;14.300;2024-01-16T09:29:52;5.93;;;4.07;;
17592;SDS011;8915;51.760;14.300;2024-01-16T09:32:20;12.27;;;8.17;;
17592;SDS011;8915;51.760;14.300;2024-01-16T09:34:46;8.10;;;6.03;;
17592;SDS011;8915;51.760;14.300;2024-01-16T09:37:13;11.87;;;9.20;;
17592;SDS011;8915;51.760;14.300;2024-01-16T09:39:39;9.27;;;6.67;;
17592;SDS011;8915;51.760;14.300;2024-01-16T09:42:06;4.43;;;3.90;;
17592;SDS011;8915;51.760;14.300;2024-01-16T09:44:32;5.67;;;4.53;;
17592;SDS011;8915;51.760;14.300;2024-01-16T09:47:00;5.23;;;4.63;;
17592;SDS011;8915;51.760;14.300;2024-01-16T09:49:30;6.60;;;4.00;;
17592;SDS011;8915;51.760;14.300;2024-01-16T09:51:56;6.07;;;3.27;;
17592;SDS011;8915;51.760;14.300;2024-01-16T09:54:24;4.47;;;3.07;;
17592;SDS011;8915;51.760;14.300;2024-01-16T09:56:52;9.03;;;6.53;;
17592;SDS011;8915;51.760;14.300;2024-01-16T09:59:21;8.53;;;6.20;;
17592;SDS011;8915;51.760;14.300;2024-01-16T10:01:48;3.30;;;2.53;;
17592;SDS011;8915;51.760;14.300;2024-01-16T10:04:17;3.43;;;2.50;;
17592;SDS011;8915;51.760;14.300;2024-01-16T10:06:45;3.03;;;2.27;;
17592;SDS011;8915;51.760;14.300;2024-01-16T10:09:12;3.73;;;1.80;;
17592;SDS011;8915;51.760;14.300;2024-01-16T10:11:39;4.77;;;2.03;;
17592;SDS011;8915;51.760;14.300;2024-01-16T10:14:06;4.00;;;2.83;;
17592;SDS011;8915;51.760;14.300;2024-01-16T10:19:24;4.93;;;2.50;;
17592;SDS011;8915;51.760;14.300;2024-01-16T10:21:52;3.17;;;2.67;;
17592;SDS011;8915;51.760;14.300;2024-01-16T10:24:18;2.40;;;2.00;;
17592;SDS011;8915;51.760;14.300;2024-01-16T10:26:45;2.90;;;2.00;;
17592;SDS011;8915;51.760;14.300;2024-01-16T10:29:11;5.23;;;2.67;;
17592;SDS011;8915;51.760;14.300;2024-01-16T10:31:37;2.73;;;2.47;;
17592;SDS011;8915;51.760;14.300;2024-01-16T10:34:09;3.00;;;2.33;;
17592;SDS011;8915;51.760;14.300;2024-01-16T10:36:45;4.20;;;3.60;;
17592;SDS011;8915;51.760;14.300;2024-01-16T10:39:13;3.90;;;3.60;;
17592;SDS011;8915;51.760;14.300;2024-01-16T10:41:40;5.63;;;4.90;;
17592;SDS011;8915;51.760;14.300;2024-01-16T10:44:07;4.67;;;3.60;;
17592;SDS011;8915;51.760;14.300;2024-01-16T10:46:36;3.87;;;3.47;;
17592;SDS011;8915;51.760;14.300;2024-01-16T10:49:02;5.10;;;3.20;;
17592;SDS011;8915;51.760;14.300;2024-01-16T10:51:30;5.73;;;2.43;;
17592;SDS011;8915;51.760;14.300;2024-01-16T10:53:58;4.50;;;3.27;;
17592;SDS011;8915;51.760;14.300;2024-01-16T10:56:27;5.30;;;3.80;;
17592;SDS011;8915;51.760;14.300;2024-01-16T10:58:57;7.13;;;2.57;;
17592;SDS011;8915;51.760;14.300;2024-01-16T11:01:27;3.63;;;2.77;;
17592;SDS011;8915;51.760;14.300;2024-01-16T11:03:55;5.07;;;3.00;;
17592;SDS011;8915;51.760;14.300;2024-01-16T11:06:22;5.07;;;2.77;;
17592;SDS011;8915;51.760;14.300;2024-01-16T11:08:50;6.57;;;2.63;;
17592;SDS011;8915;51.760;14.300;2024-01-16T11:11:17;6.17;;;3.13;;
17592;SDS011;8915;51.760;14.300;2024-01-16T11:13:45;4.50;;;1.97;;
17592;SDS011;8915;51.760;14.300;2024-01-16T11:16:12;3.70;;;2.00;;
17592;SDS011;8915;51.760;14.300;2024-01-16T11:18:39;7.40;;;2.57;;
17592;SDS011;8915;51.760;14.300;2024-01-16T11:21:06;5.27;;;2.50;;
17592;SDS011;8915;51.760;14.300;2024-01-16T11:23:34;2.67;;;2.10;;
17592;SDS011;8915;51.760;14.300;2024-01-16T11:26:04;6.30;;;2.00;;
17592;SDS011;8915;51.760;14.300;2024-01-16T11:28:52;2.83;;;2.00;;
17592;SDS011;8915;51.760;14.300;2024-01-16T11:31:28;2.50;;;1.73;;
17592;SDS011;8915;51.760;14.300;2024-01-16T11:33:56;3.90;;;2.10;;
17592;SDS011;8915;51.760;14.300;2024-01-16T11:39:19;3.63;;;2.00;;
17592;SDS011;8915;51.760;14.300;2024-01-16T11:41:50;3.80;;;2.07;;
17592;SDS011;8915;51.760;14.300;2024-01-16T11:44:38;4.20;;;1.97;;
17592;SDS011;8915;51.760;14.300;2024-01-16T11:47:06;3.13;;;2.03;;
17592;SDS011;8915;51.760;14.300;2024-01-16T11:49:33;3.37;;;1.80;;
17592;SDS011;8915;51.760;14.300;2024-01-16T11:52:00;7.37;;;2.17;;
17592;SDS011;8915;51.760;14.300;2024-01-16T11:54:27;3.70;;;2.00;;
17592;SDS011;8915;51.760;14.300;2024-01-16T11:56:59;2.77;;;1.97;;
17592;SDS011;8915;51.760;14.300;2024-01-16T11:59:42;3.27;;;1.73;;
17592;SDS011;8915;51.760;14.300;2024-01-16T12:02:23;4.83;;;1.90;;
17592;SDS011;8915;51.760;14.300;2024-01-16T12:04:55;8.50;;;2.10;;
17592;SDS011;8915;51.760;14.300;2024-01-16T12:07:28;4.27;;;2.00;;
17592;SDS011;8915;51.760;14.300;2024-01-16T12:09:58;6.33;;;1.83;;
17592;SDS011;8915;51.760;14.300;2024-01-16T12:12:25;11.50;;;1.87;;
17592;SDS011;8915;51.760;14.300;2024-01-16T12:14:53;2.53;;;1.73;;
17592;SDS011;8915;51.760;14.300;2024-01-16T12:17:19;4.10;;;1.97;;
17592;SDS011;8915;51.760;14.300;2024-01-16T12:19:46;4.17;;;1.90;;
17592;SDS011;8915;51.760;14.300;2024-01-16T12:22:15;4.23;;;1.63;;
17592;SDS011;8915;51.760;14.300;2024-01-16T12:24:43;3.80;;;1.77;;
17592;SDS011;8915;51.760;14.300;2024-01-16T12:27:10;3.77;;;1.83;;
17592;SDS011;8915;51.760;14.300;2024-01-16T12:29:37;5.47;;;1.70;;
17592;SDS011;8915;51.760;14.300;2024-01-16T12:32:07;5.40;;;2.37;;
17592;SDS011;8915;51.760;14.300;2024-01-16T12:34:34;8.10;;;2.13;;
17592;SDS011;8915;51.760;14.300;2024-01-16T12:37:04;3.43;;;2.40;;
17592;SDS011;8915;51.760;14.300;2024-01-16T12:39:32;6.20;;;1.90;;
17592;SDS011;8915;51.760;14.300;2024-01-16T12:42:00;3.10;;;1.80;;
17592;SDS011;8915;51.760;14.300;2024-01-16T12:44:27;5.97;;;2.50;;
17592;SDS011;8915;51.760;14.300;2024-01-16T12:46:54;4.03;;;1.60;;
17592;SDS011;8915;51.760;14.300;2024-01-16T12:49:22;5.37;;;2.13;;
17592;SDS011;8915;51.760;14.300;2024-01-16T12:51:49;4.90;;;1.67;;
17592;SDS011;8915;51.760;14.300;2024-01-16T12:54:16;5.23;;;2.67;;
17592;SDS011;8915;51.760;14.300;2024-01-16T12:56:44;4.83;;;2.30;;
17592;SDS011;8915;51.760;14.300;2024-01-16T12:59:10;4.27;;;2.47;;
17592;SDS011;8915;51.760;14.300;2024-01-16T13:01:39;8.53;;;2.80;;
17592;SDS011;8915;51.760;14.300;2024-01-16T13:04:07;4.93;;;2.40;;
17592;SDS011;8915;51.760;14.300;2024-01-16T13:06:35;8.00;;;3.10;;
17592;SDS011;8915;51.760;14.300;2024-01-16T13:09:05;7.03;;;3.20;;
17592;SDS011;8915;51.760;14.300;2024-01-16T13:11:44;5.30;;;2.83;;
17592;SDS011;8915;51.760;14.300;2024-01-16T13:14:11;6.13;;;2.67;;
17592;SDS011;8915;51.760;14.300;2024-01-16T13:16:37;7.13;;;3.03;;
17592;SDS011;8915;51.760;14.300;2024-01-16T13:19:03;8.43;;;2.97;;
17592;SDS011;8915;51.760;14.300;2024-01-16T13:21:35;7.00;;;3.50;;
17592;SDS011;8915;51.760;14.300;2024-01-16T13:24:02;5.73;;;2.93;;
17592;SDS011;8915;51.760;14.300;2024-01-16T13:26:28;9.40;;;3.00;;
17592;SDS011;8915;51.760;14.300;2024-01-16T13:28:55;6.83;;;2.40;;
17592;SDS011;8915;51.760;14.300;2024-01-16T13:31:21;6.80;;;3.13;;
17592;SDS011;8915;51.760;14.300;2024-01-16T13:33:47;4.73;;;2.90;;
17592;SDS011;8915;51.760;14.300;2024-01-16T13:36:14;5.57;;;2.90;;
17592;SDS011;8915;51.760;14.300;2024-01-16T13:38:42;7.63;;;3.00;;
17592;SDS011;8915;51.760;14.300;2024-01-16T13:41:09;7.47;;;3.73;;
17592;SDS011;8915;51.760;14.300;2024-01-16T13:43:36;5.77;;;3.10;;
17592;SDS011;8915;51.760;14.300;2024-01-16T13:46:03;5.97;;;3.17;;
17592;SDS011;8915;51.760;14.300;2024-01-16T13:48:29;7.87;;;3.13;;
17592;SDS011;8915;51.760;14.300;2024-01-16T13:50:56;4.80;;;2.80;;
17592;SDS011;8915;51.760;14.300;2024-01-16T13:53:22;9.30;;;3.03;;
17592;SDS011;8915;51.760;14.300;2024-01-16T13:55:50;5.83;;;3.00;;
17592;SDS011;8915;51.760;14.300;2024-01-16T13:58:16;8.57;;;2.83;;
17592;SDS011;8915;51.760;14.300;2024-01-16T14:00:43;6.10;;;2.80;;
17592;SDS011;8915;51.760;14.300;2024-01-16T14:03:10;9.23;;;3.10;;
17592;SDS011;8915;51.760;14.300;2024-01-16T14:05:36;4.77;;;2.93;;
17592;SDS011;8915;51.760;14.300;2024-01-16T14:08:05;8.13;;;3.10;;
17592;SDS011;8915;51.760;14.300;2024-01-16T14:10:33;8.23;;;3.17;;
17592;SDS011;8915;51.760;14.300;2024-01-16T14:13:00;5.50;;;2.60;;
17592;SDS011;8915;51.760;14.300;2024-01-16T14:15:29;5.63;;;2.70;;
17592;SDS011;8915;51.760;14.300;2024-01-16T14:17:56;7.27;;;2.87;;
17592;SDS011;8915;51.760;14.300;2024-01-16T14:20:23;10.07;;;3.23;;
17592;SDS011;8915;51.760;14.300;2024-01-16T14:22:51;5.67;;;2.80;;
17592;SDS011;8915;51.760;14.300;2024-01-16T14:25:18;6.47;;;2.93;;
17592;SDS011;8915;51.760;14.300;2024-01-16T14:27:47;7.63;;;3.40;;
17592;SDS011;8915;51.760;14.300;2024-01-16T14:30:22;6.10;;;3.13;;
17592;SDS011;8915;51.760;14.300;2024-01-16T14:32:50;6.63;;;3.17;;
17592;SDS011;8915;51.760;14.300;2024-01-16T14:35:17;7.63;;;2.40;;
17592;SDS011;8915;51.760;14.300;2024-01-16T14:37:44;5.13;;;2.77;;
17592;SDS011;8915;51.760;14.300;2024-01-16T14:40:11;4.73;;;2.50;;
17592;SDS011;8915;51.760;14.300;2024-01-16T14:42:41;6.17;;;2.60;;
17592;SDS011;8915;51.760;14.300;2024-01-16T14:45:09;5.80;;;2.37;;
17592;SDS011;8915;51.760;14.300;2024-01-16T14:47:38;6.10;;;2.40;;
17592;SDS011;8915;51.760;14.300;2024-01-16T14:50:04;7.07;;;2.43;;
17592;SDS011;8915;51.760;14.300;2024-01-16T14:52:31;6.97;;;2.53;;
17592;SDS011;8915;51.760;14.300;2024-01-16T14:54:58;8.13;;;2.63;;